createdAt,value
2022-12-18T10:34:58.305Z,21.80
2022-12-18T10:35:53.320Z,21.70
2022-12-18T10:36:52.459Z,21.00
2022-12-18T10:37:52.219Z,22.60
2022-12-18T10:38:52.173Z,21.80
2022-12-18T10:39:52.120Z,21.70
2022-12-18T10:40:52.057Z,21.80
2022-12-18T10:41:51.990Z,22.00
2022-12-18T10:42:51.929Z,23.10
2022-12-18T10:43:51.869Z,22.10
2022-12-18T10:44:51.820Z,22.20
2022-12-18T10:45:51.744Z,21.00
2022-12-18T10:46:51.818Z,21.00
2022-12-18T10:47:51.620Z,21.80
2022-12-18T10:48:51.553Z,22.80
2022-12-18T10:49:51.462Z,22.20
2022-12-18T10:51:10.505Z,22.50
2022-12-18T10:51:52.318Z,21.10
2022-12-18T10:52:51.240Z,22.70
2022-12-18T10:53:51.167Z,21.00
2022-12-18T10:54:51.089Z,20.60
2022-12-18T10:55:51.011Z,22.30
2022-12-18T10:56:50.929Z,21.10
2022-12-18T10:57:50.850Z,21.00
2022-12-18T10:58:50.778Z,22.40
2022-12-18T10:59:50.692Z,22.30
2022-12-18T11:00:50.633Z,22.30
2022-12-18T11:01:50.603Z,21.10
2022-12-18T11:02:50.551Z,22.00
2022-12-18T11:03:50.443Z,19.90
2022-12-18T11:04:50.289Z,21.80
2022-12-18T11:05:50.204Z,22.30
2022-12-18T11:06:50.151Z,21.70
2022-12-18T11:07:50.032Z,21.60
2022-12-18T11:08:49.945Z,21.80
2022-12-18T11:09:49.850Z,21.60
2022-12-18T11:10:49.769Z,22.60
2022-12-18T11:11:49.682Z,21.30
2022-12-18T11:12:49.602Z,20.80
2022-12-18T11:13:49.482Z,21.70
2022-12-18T11:14:49.448Z,21.10
2022-12-18T11:15:49.412Z,21.30
2022-12-18T11:17:23.853Z,20.30
2022-12-18T11:17:50.120Z,20.30
2022-12-18T11:18:49.021Z,21.00
2022-12-18T11:19:48.912Z,21.50
2022-12-18T11:20:48.822Z,20.70
2022-12-18T11:21:48.732Z,20.30
2022-12-18T11:22:48.622Z,20.90
2022-12-18T11:23:48.522Z,21.00
2022-12-18T11:25:08.343Z,22.30
2022-12-18T11:25:49.336Z,21.30
2022-12-18T11:26:48.260Z,21.30
2022-12-18T11:27:48.142Z,19.50
2022-12-18T11:28:48.034Z,20.40
2022-12-18T11:29:47.923Z,20.50
2022-12-18T11:30:47.852Z,20.10
2022-12-18T11:31:47.745Z,19.50
2022-12-18T11:32:47.616Z,21.10
2022-12-18T11:34:05.147Z,20.90
2022-12-18T11:34:48.412Z,20.00
2022-12-18T11:35:47.292Z,19.00
2022-12-18T11:36:47.203Z,18.30
2022-12-18T11:37:47.086Z,19.60
2022-12-18T11:38:46.986Z,18.60
2022-12-18T11:39:46.870Z,19.10
2022-12-18T11:40:46.769Z,18.50
2022-12-18T16:56:23.898Z,27.20
2022-12-18T16:57:24.667Z,27.20
2022-12-18T16:58:23.836Z,28.00
2022-12-18T16:59:23.747Z,30.00
2022-12-18T17:00:23.707Z,28.50
2022-12-18T17:01:23.827Z,29.80
2022-12-18T17:02:24.451Z,30.60
2022-12-18T17:03:23.677Z,31.90
2022-12-18T17:04:23.496Z,31.80
2022-12-18T17:05:23.471Z,35.40
2022-12-18T17:06:23.387Z,34.90
2022-12-18T17:07:23.322Z,31.50
2022-12-18T17:08:23.291Z,29.10
2022-12-18T17:09:23.217Z,29.70
2022-12-18T17:10:23.157Z,28.20
2022-12-18T17:11:23.079Z,26.00
2022-12-18T17:12:23.033Z,28.60
2022-12-18T17:13:25.868Z,27.20
2022-12-18T17:14:22.901Z,27.70
2022-12-18T17:15:22.825Z,25.90
2022-12-18T17:16:22.848Z,24.40
2022-12-18T17:17:23.604Z,27.70
2022-12-18T17:18:22.640Z,26.90
2022-12-18T17:19:22.569Z,31.00
2022-12-18T17:20:22.511Z,36.80
2022-12-18T17:21:22.490Z,35.50
2022-12-18T17:22:22.374Z,31.60
2022-12-18T17:23:22.328Z,30.20
2022-12-18T17:24:22.240Z,29.70
2022-12-18T17:25:22.196Z,29.90
2022-12-18T17:26:22.109Z,30.10
2022-12-18T17:27:22.059Z,29.70
2022-12-18T17:28:21.991Z,30.80
2022-12-18T17:29:21.921Z,31.50
2022-12-18T17:30:21.849Z,32.40
2022-12-18T17:31:21.840Z,30.60
2022-12-18T17:32:21.750Z,30.40
2022-12-18T17:33:21.650Z,29.00
2022-12-18T17:34:21.610Z,31.50
2022-12-18T17:35:21.531Z,32.40
2022-12-18T17:36:21.472Z,32.30
2022-12-18T17:37:21.402Z,32.60
2022-12-18T17:38:21.330Z,29.70
2022-12-18T17:39:21.273Z,29.70
2022-12-18T17:40:21.206Z,29.20
2022-12-18T17:41:21.133Z,29.90
2022-12-18T17:42:21.101Z,30.00
2022-12-18T17:43:21.011Z,30.40
2022-12-18T17:44:20.941Z,29.00
2022-12-18T17:45:20.872Z,28.20
2022-12-18T17:46:20.858Z,27.20
2022-12-18T17:47:20.743Z,25.80
2022-12-18T17:48:20.697Z,28.80
2022-12-18T17:49:20.611Z,26.70
2022-12-18T17:50:20.550Z,27.20
2022-12-18T17:51:20.494Z,27.60
2022-12-18T17:52:20.436Z,28.20
2022-12-18T17:53:20.364Z,28.70
2022-12-18T17:54:20.290Z,26.70
2022-12-18T17:55:20.212Z,25.90
2022-12-18T17:56:20.155Z,26.30
2022-12-18T17:57:20.079Z,25.20
2022-12-18T17:58:20.011Z,25.80
2022-12-18T17:59:19.962Z,24.80
2022-12-18T18:00:19.896Z,25.90
2022-12-18T18:01:19.950Z,25.50
2022-12-18T18:02:19.956Z,25.10
2022-12-18T18:03:19.881Z,25.70
2022-12-18T18:04:19.742Z,25.10
2022-12-18T18:05:19.562Z,24.80
2022-12-18T18:06:19.514Z,24.00
2022-12-18T18:07:19.434Z,23.70
2022-12-18T18:08:19.393Z,26.10
2022-12-18T18:09:19.340Z,24.70
2022-12-18T18:10:19.273Z,25.20
2022-12-18T18:11:19.203Z,25.90
2022-12-18T18:12:19.158Z,27.00
2022-12-18T18:13:19.097Z,28.10
2022-12-18T18:14:19.063Z,26.10
2022-12-18T18:15:18.964Z,27.80
2022-12-18T18:16:19.026Z,27.80
2022-12-18T18:17:18.833Z,25.60
2022-12-18T18:18:18.783Z,27.20
2022-12-18T18:19:18.753Z,25.90
2022-12-18T18:20:22.500Z,26.50
2022-12-18T18:21:18.594Z,25.90
2022-12-18T18:22:18.736Z,26.90
2022-12-18T18:23:18.493Z,26.00
2022-12-18T18:24:18.445Z,26.50
2022-12-18T18:25:18.377Z,26.90
2022-12-18T18:26:18.296Z,26.60
2022-12-18T18:27:18.234Z,27.00
2022-12-18T18:28:18.187Z,26.40
2022-12-18T18:29:18.134Z,27.50
2022-12-18T18:30:18.085Z,27.00
2022-12-18T18:31:18.036Z,27.60
2022-12-18T18:32:17.946Z,27.10
2022-12-18T18:33:17.885Z,27.30
2022-12-18T18:34:17.830Z,27.20
2022-12-18T18:35:45.063Z,27.50
2022-12-18T18:36:18.695Z,27.60
2022-12-18T18:37:17.657Z,24.80
2022-12-18T18:38:17.565Z,26.40
2022-12-18T18:39:17.518Z,27.00
2022-12-18T18:40:17.465Z,25.90
2022-12-18T18:41:17.359Z,27.00
2022-12-18T18:42:17.309Z,27.40
